createdAt,value
2018-05-02T00:00:18.988Z,0
2018-05-02T00:01:27.621Z,0
2018-05-02T00:02:36.251Z,0
2018-05-02T00:03:44.899Z,0
2018-05-02T00:04:53.548Z,0
2018-05-02T00:06:02.169Z,0
2018-05-02T00:07:11.347Z,0
2018-05-02T00:08:19.989Z,0
2018-05-02T00:09:28.625Z,0
2018-05-02T00:10:37.261Z,0
2018-05-02T00:11:45.892Z,0
2018-05-02T00:12:54.544Z,0
2018-05-02T00:14:03.188Z,0
2018-05-02T00:15:12.079Z,0
2018-05-02T00:16:20.722Z,0
2018-05-02T00:17:29.367Z,0
2018-05-02T00:18:37.993Z,0
2018-05-02T00:19:46.637Z,0
2018-05-02T00:20:55.285Z,0
2018-05-02T00:22:03.912Z,0
2018-05-02T00:23:12.546Z,0
2018-05-02T00:24:21.195Z,0
2018-05-02T00:25:29.829Z,0
2018-05-02T00:26:38.456Z,0
2018-05-02T00:27:47.110Z,0
2018-05-02T00:28:55.746Z,0
2018-05-02T00:30:04.373Z,0
2018-05-02T00:31:13.022Z,0
2018-05-02T00:32:21.665Z,0
2018-05-02T00:33:30.293Z,0
2018-05-02T00:34:38.936Z,0
2018-05-02T00:35:47.579Z,0
2018-05-02T00:36:56.206Z,0
2018-05-02T00:38:05.119Z,0
2018-05-02T00:39:13.748Z,0
2018-05-02T00:40:22.400Z,0
2018-05-02T00:41:31.566Z,0
2018-05-02T00:42:40.195Z,0
2018-05-02T00:43:49.371Z,0
2018-05-02T00:44:58.018Z,0
2018-05-02T00:46:06.642Z,0
2018-05-02T00:47:15.286Z,0
2018-05-02T00:48:23.933Z,0
2018-05-02T00:49:32.561Z,0
2018-05-02T00:50:41.195Z,0
2018-05-02T00:51:49.844Z,0
2018-05-02T00:52:58.479Z,0
2018-05-02T00:54:07.124Z,0
2018-05-02T00:55:15.750Z,0
2018-05-02T00:56:24.391Z,0
2018-05-02T00:57:33.041Z,0
2018-05-02T00:58:41.693Z,0
2018-05-02T00:59:50.301Z,0
2018-05-02T01:00:58.949Z,0
2018-05-02T01:02:07.583Z,0
2018-05-02T01:03:16.212Z,0
2018-05-02T01:04:24.898Z,0
2018-05-02T01:05:33.796Z,0
2018-05-02T01:06:42.688Z,0
2018-05-02T01:07:51.332Z,0
2018-05-02T01:09:00.244Z,0
2018-05-02T01:10:08.887Z,0
2018-05-02T01:11:17.518Z,0
2018-05-02T01:12:26.415Z,0
2018-05-02T01:13:35.058Z,0
2018-05-02T01:14:43.695Z,0
2018-05-02T01:15:52.319Z,0
2018-05-02T01:17:00.970Z,0
2018-05-02T01:18:09.612Z,0
2018-05-02T01:19:18.241Z,0
2018-05-02T01:20:26.885Z,0
2018-05-02T01:21:35.533Z,0
2018-05-02T01:22:44.180Z,0
2018-05-02T01:23:52.803Z,0
2018-05-02T01:25:01.441Z,0
2018-05-02T01:26:10.356Z,0
2018-05-02T01:27:19.264Z,0
2018-05-02T01:28:27.891Z,0
2018-05-02T01:29:36.539Z,0
2018-05-02T01:30:45.182Z,0
2018-05-02T01:31:53.810Z,0
2018-05-02T01:33:02.454Z,0
2018-05-02T01:34:11.371Z,0
2018-05-02T01:35:19.996Z,0
2018-05-02T01:36:28.895Z,0
2018-05-02T01:37:37.805Z,0
2018-05-02T01:38:46.448Z,0
2018-05-02T01:39:55.151Z,0
2018-05-02T01:41:03.720Z,0
2018-05-02T01:42:12.361Z,0
2018-05-02T01:43:21.009Z,0
2018-05-02T01:44:29.637Z,0
2018-05-02T01:45:38.531Z,0
2018-05-02T01:46:47.183Z,0
2018-05-02T01:47:55.816Z,0
2018-05-02T01:49:04.449Z,0
2018-05-02T01:50:13.098Z,0
2018-05-02T01:51:21.733Z,0
2018-05-02T01:52:30.379Z,0
2018-05-02T01:53:39.002Z,0
2018-05-02T01:54:47.639Z,0
2018-05-02T01:55:56.557Z,0
2018-05-02T01:57:05.191Z,0
2018-05-02T01:58:13.819Z,0
2018-05-02T01:59:22.472Z,0
2018-05-02T02:00:31.108Z,0
2018-05-02T02:01:39.729Z,0
2018-05-02T02:02:48.375Z,0
2018-05-02T02:03:57.019Z,0
2018-05-02T02:05:05.645Z,0
2018-05-02T02:06:14.288Z,0
2018-05-02T02:07:22.917Z,0
2018-05-02T02:08:31.571Z,0
2018-05-02T02:09:40.472Z,0
2018-05-02T02:10:49.359Z,0
2018-05-02T02:11:58.016Z,0
2018-05-02T02:13:06.655Z,0
2018-05-02T02:14:15.282Z,0
2018-05-02T02:15:23.927Z,0
2018-05-02T02:16:32.578Z,0
2018-05-02T02:17:41.201Z,0
2018-05-02T02:18:50.110Z,0
2018-05-02T02:19:58.759Z,0
2018-05-02T02:21:07.396Z,0
2018-05-02T02:22:16.017Z,0
2018-05-02T02:23:24.665Z,0
2018-05-02T02:24:33.294Z,0
2018-05-02T02:25:41.924Z,0
2018-05-02T02:26:50.573Z,0
2018-05-02T02:27:59.212Z,0
2018-05-02T02:29:07.845Z,0
2018-05-02T02:30:16.766Z,0
2018-05-02T02:31:25.410Z,0
2018-05-02T02:32:34.044Z,0
2018-05-02T02:33:43.235Z,0
2018-05-02T02:34:52.421Z,0
2018-05-02T02:36:01.316Z,0
2018-05-02T02:37:09.965Z,0
2018-05-02T02:38:18.864Z,0
2018-05-02T02:39:27.779Z,0
2018-05-02T02:40:36.423Z,0
2018-05-02T02:41:45.061Z,0
2018-05-02T02:42:53.703Z,0
2018-05-02T02:44:02.625Z,0
2018-05-02T02:45:11.252Z,0
2018-05-02T02:46:19.891Z,0
2018-05-02T02:47:28.549Z,0
2018-05-02T02:48:37.714Z,0
2018-05-02T02:49:46.345Z,0
2018-05-02T02:50:54.980Z,0
2018-05-02T02:52:03.906Z,0
2018-05-02T02:53:12.815Z,0
2018-05-02T02:54:21.443Z,0
2018-05-02T02:55:30.079Z,0
2018-05-02T02:56:38.998Z,0
2018-05-02T02:57:47.637Z,0
2018-05-02T02:58:56.544Z,0
2018-05-02T03:00:05.207Z,0
2018-05-02T03:01:13.850Z,0
2018-05-02T03:02:22.482Z,0
2018-05-02T03:03:31.401Z,0
2018-05-02T03:04:40.051Z,0
2018-05-02T03:05:48.962Z,0
2018-05-02T03:06:57.870Z,0
2018-05-02T03:08:06.509Z,0
2018-05-02T03:09:15.164Z,0
2018-05-02T03:10:24.056Z,0
2018-05-02T03:11:32.694Z,0
2018-05-02T03:12:41.605Z,0
2018-05-02T03:13:50.515Z,0
2018-05-02T03:14:59.410Z,0
2018-05-02T03:16:08.058Z,0
2018-05-02T03:17:16.695Z,0
2018-05-02T03:18:25.322Z,0
2018-05-02T03:19:33.968Z,0
2018-05-02T03:20:42.879Z,0
2018-05-02T03:21:51.502Z,0
2018-05-02T03:23:00.406Z,0
2018-05-02T03:24:09.058Z,0
2018-05-02T03:25:17.942Z,0
2018-05-02T03:26:26.576Z,0
2018-05-02T03:27:35.222Z,0
2018-05-02T03:28:43.859Z,0
2018-05-02T03:29:52.486Z,0
2018-05-02T03:31:01.410Z,0
2018-05-02T03:32:10.044Z,0
2018-05-02T03:33:18.669Z,0
2018-05-02T03:34:27.314Z,0
2018-05-02T03:35:35.951Z,0
2018-05-02T03:36:44.599Z,0
2018-05-02T03:37:53.227Z,0
2018-05-02T03:39:01.875Z,0
2018-05-02T03:40:10.525Z,0
2018-05-02T03:41:19.162Z,0
2018-05-02T03:42:27.784Z,0
2018-05-02T03:43:36.434Z,0
2018-05-02T03:44:45.072Z,0
2018-05-02T03:45:53.701Z,0
2018-05-02T03:47:02.345Z,0
2018-05-02T03:48:11.273Z,0
2018-05-02T03:49:19.907Z,0
2018-05-02T03:50:28.542Z,0
2018-05-02T03:51:37.168Z,0
2018-05-02T03:52:45.818Z,0
2018-05-02T03:53:54.726Z,0
2018-05-02T03:55:03.350Z,5
2018-05-02T03:56:11.999Z,5
2018-05-02T03:57:20.907Z,5
2018-05-02T03:58:29.536Z,5
2018-05-02T03:59:38.183Z,5
2018-05-02T04:00:46.830Z,5
2018-05-02T04:01:55.452Z,5
2018-05-02T04:03:04.094Z,5
2018-05-02T04:04:12.728Z,10
2018-05-02T04:05:21.369Z,10
2018-05-02T04:06:30.267Z,10
2018-05-02T04:07:38.894Z,10
2018-05-02T04:08:47.529Z,10
2018-05-02T04:09:56.454Z,10
2018-05-02T04:11:05.081Z,15
2018-05-02T04:12:13.719Z,15
2018-05-02T04:13:22.369Z,15
2018-05-02T04:14:30.993Z,15
2018-05-02T04:15:39.623Z,15
2018-05-02T04:16:48.273Z,20
2018-05-02T04:17:56.910Z,20
2018-05-02T04:19:05.537Z,20
2018-05-02T04:20:14.182Z,20
2018-05-02T04:21:23.093Z,20
2018-05-02T04:22:31.719Z,25
2018-05-02T04:23:40.363Z,25
2018-05-02T04:24:49.006Z,25
2018-05-02T04:25:57.633Z,25
2018-05-02T04:27:06.539Z,30
2018-05-02T04:28:15.189Z,30
2018-05-02T04:29:23.815Z,30
2018-05-02T04:30:32.451Z,30
2018-05-02T04:31:41.101Z,30
2018-05-02T04:32:49.726Z,35
2018-05-02T04:33:58.371Z,35
2018-05-02T04:35:07.256Z,35
2018-05-02T04:36:15.897Z,35
2018-05-02T04:37:24.547Z,40
2018-05-02T04:38:33.448Z,40
2018-05-02T04:39:42.077Z,40
2018-05-02T04:40:50.805Z,40
2018-05-02T04:41:59.360Z,45
2018-05-02T04:43:07.991Z,45
2018-05-02T04:44:17.172Z,45
2018-05-02T04:45:25.809Z,45
2018-05-02T04:46:34.437Z,50
2018-05-02T04:47:43.088Z,50
2018-05-02T04:48:51.721Z,50
2018-05-02T04:50:00.368Z,50
2018-05-02T04:51:08.999Z,55
2018-05-02T04:52:17.627Z,55
2018-05-02T04:53:26.277Z,55
2018-05-02T04:54:34.914Z,55
2018-05-02T04:55:43.544Z,60
2018-05-02T04:56:52.192Z,60
2018-05-02T04:58:00.833Z,60
2018-05-02T04:59:09.462Z,60
2018-05-02T05:00:18.369Z,65
2018-05-02T05:01:27.009Z,65
2018-05-02T05:02:35.918Z,65
2018-05-02T05:03:44.552Z,65
2018-05-02T05:04:53.177Z,65
2018-05-02T05:06:01.828Z,70
2018-05-02T05:07:10.786Z,70
2018-05-02T05:08:19.631Z,70
2018-05-02T05:09:28.274Z,75
2018-05-02T05:10:36.918Z,75
2018-05-02T05:11:45.543Z,75
2018-05-02T05:12:54.186Z,80
2018-05-02T05:14:02.833Z,80
2018-05-02T05:15:11.476Z,85
2018-05-02T05:16:20.107Z,80
2018-05-02T05:17:28.738Z,80
2018-05-02T05:18:37.651Z,85
2018-05-02T05:19:46.556Z,85
2018-05-02T05:20:55.186Z,85
2018-05-02T05:22:03.830Z,90
2018-05-02T05:23:12.477Z,90
2018-05-02T05:24:21.367Z,90
2018-05-02T05:25:30.008Z,95
2018-05-02T05:26:38.920Z,95
2018-05-02T05:27:47.809Z,95
2018-05-02T05:28:56.441Z,95
2018-05-02T05:30:05.660Z,100
2018-05-02T05:31:14.261Z,100
2018-05-02T05:32:22.904Z,100
2018-05-02T05:33:31.792Z,100
2018-05-02T05:34:40.426Z,100
2018-05-02T05:35:49.080Z,100
2018-05-02T05:36:57.982Z,100
2018-05-02T05:38:06.877Z,100
2018-05-02T05:39:15.523Z,100
2018-05-02T05:40:24.161Z,105
2018-05-02T05:41:33.052Z,105
2018-05-02T05:42:41.700Z,105
2018-05-02T05:43:50.338Z,105
2018-05-02T05:44:58.964Z,110
2018-05-02T05:46:07.610Z,110
2018-05-02T05:47:16.247Z,110
2018-05-02T05:48:24.900Z,110
2018-05-02T05:49:33.533Z,115
2018-05-02T05:50:42.163Z,115
2018-05-02T05:51:50.809Z,115
2018-05-02T05:52:59.456Z,115
2018-05-02T05:54:08.127Z,115
2018-05-02T05:55:16.997Z,120
2018-05-02T05:56:25.641Z,120
2018-05-02T05:57:34.269Z,120
2018-05-02T05:58:42.913Z,120
2018-05-02T05:59:51.824Z,120
2018-05-02T06:01:00.728Z,120
2018-05-02T06:02:09.363Z,120
2018-05-02T06:03:17.991Z,125
2018-05-02T06:04:26.640Z,125
2018-05-02T06:05:35.282Z,125
2018-05-02T06:06:43.953Z,125
2018-05-02T06:07:52.555Z,125
2018-05-02T06:09:01.205Z,125
2018-05-02T06:10:09.835Z,125
2018-05-02T06:11:18.470Z,125
2018-05-02T06:12:27.123Z,125
2018-05-02T06:13:35.752Z,125
2018-05-02T06:14:44.386Z,125
2018-05-02T06:15:53.042Z,125
2018-05-02T06:17:02.202Z,125
2018-05-02T06:18:10.834Z,135
2018-05-02T06:19:19.483Z,130
2018-05-02T06:20:28.131Z,130
2018-05-02T06:21:36.754Z,130
2018-05-02T06:22:45.937Z,130
2018-05-02T06:23:54.583Z,130
2018-05-02T06:25:03.227Z,130
2018-05-02T06:26:12.521Z,130
2018-05-02T06:27:21.403Z,130
2018-05-02T06:28:30.033Z,135
2018-05-02T06:29:38.670Z,135
2018-05-02T06:30:47.310Z,135
2018-05-02T06:31:56.037Z,135
2018-05-02T06:33:04.616Z,135
2018-05-02T06:34:13.508Z,135
2018-05-02T06:35:22.505Z,135
2018-05-02T06:36:31.170Z,135
2018-05-02T06:37:40.176Z,135
2018-05-02T06:38:48.811Z,135
2018-05-02T06:39:57.781Z,140
2018-05-02T06:41:06.424Z,140
2018-05-02T06:42:15.399Z,140
2018-05-02T06:43:24.132Z,140
2018-05-02T06:44:32.951Z,140
2018-05-02T06:45:41.602Z,140
2018-05-02T06:46:50.230Z,140
2018-05-02T06:47:59.136Z,145
2018-05-02T06:49:08.052Z,145
2018-05-02T06:50:16.737Z,145
2018-05-02T06:51:25.320Z,145
2018-05-02T06:52:33.974Z,150
2018-05-02T06:53:42.610Z,145
2018-05-02T06:54:51.497Z,145
2018-05-02T06:56:00.148Z,140
2018-05-02T06:57:08.794Z,145
2018-05-02T06:58:17.687Z,145
2018-05-02T06:59:26.333Z,145
2018-05-02T07:00:34.968Z,145
2018-05-02T07:01:43.619Z,145
2018-05-02T07:02:52.259Z,145
2018-05-02T07:04:00.890Z,145
2018-05-02T07:05:09.547Z,145
2018-05-02T07:06:18.508Z,150
2018-05-02T07:07:27.145Z,145
2018-05-02T07:08:35.824Z,145
2018-05-02T07:09:44.752Z,150
2018-05-02T07:10:53.465Z,150
2018-05-02T07:12:02.134Z,150
2018-05-02T07:13:10.791Z,150
2018-05-02T07:14:19.697Z,150
2018-05-02T07:15:28.640Z,150
2018-05-02T07:16:37.534Z,150
2018-05-02T07:17:46.180Z,150
2018-05-02T07:18:54.827Z,155
2018-05-02T07:20:03.724Z,150
2018-05-02T07:21:12.371Z,155
2018-05-02T07:22:21.343Z,155
2018-05-02T07:23:29.973Z,155
2018-05-02T07:24:38.610Z,155
2018-05-02T07:25:47.269Z,155
2018-05-02T07:26:55.907Z,155
2018-05-02T07:28:04.551Z,155
2018-05-02T07:29:13.463Z,155
2018-05-02T07:30:22.109Z,160
2018-05-02T07:31:30.763Z,160
2018-05-02T07:32:39.456Z,160
2018-05-02T07:33:48.473Z,160
2018-05-02T07:34:57.124Z,160
2018-05-02T07:36:05.765Z,160
2018-05-02T07:37:14.397Z,160
2018-05-02T07:38:23.050Z,160
2018-05-02T07:39:31.989Z,160
2018-05-02T07:40:40.624Z,160
2018-05-02T07:41:49.541Z,155
2018-05-02T07:42:58.187Z,155
2018-05-02T07:44:06.833Z,155
2018-05-02T07:45:15.735Z,155
2018-05-02T07:46:24.368Z,155
2018-05-02T07:47:33.023Z,155
2018-05-02T07:48:41.701Z,160
2018-05-02T07:49:50.294Z,155
2018-05-02T07:50:58.947Z,155
2018-05-02T07:52:07.596Z,160
2018-05-02T07:53:16.227Z,160
2018-05-02T07:54:24.873Z,165
2018-05-02T07:55:33.521Z,170
2018-05-02T07:56:42.526Z,165
2018-05-02T07:57:52.846Z,165
2018-05-02T07:59:01.762Z,170
2018-05-02T08:00:10.417Z,170
2018-05-02T08:01:19.059Z,175
2018-05-02T08:02:27.692Z,165
2018-05-02T08:03:36.343Z,165
2018-05-02T08:04:44.993Z,165
2018-05-02T08:05:53.619Z,165
2018-05-02T08:07:02.265Z,160
2018-05-02T08:08:10.920Z,165
2018-05-02T08:09:19.553Z,165
2018-05-02T08:10:28.471Z,165
2018-05-02T08:11:37.123Z,170
2018-05-02T08:12:46.033Z,165
2018-05-02T08:13:54.664Z,170
2018-05-02T08:15:03.589Z,165
2018-05-02T08:16:12.493Z,170
2018-05-02T08:17:21.124Z,165
2018-05-02T08:18:29.779Z,165
2018-05-02T08:19:38.688Z,170
2018-05-02T08:20:47.322Z,170
2018-05-02T08:21:56.012Z,170
2018-05-02T08:23:04.627Z,170
2018-05-02T08:24:13.256Z,170
2018-05-02T08:25:21.904Z,170
2018-05-02T08:26:30.557Z,170
2018-05-02T08:27:39.196Z,175
2018-05-02T08:28:47.839Z,175
2018-05-02T08:29:56.470Z,175
2018-05-02T08:31:05.123Z,175
2018-05-02T08:32:13.774Z,175
2018-05-02T08:33:22.405Z,180
2018-05-02T08:34:31.048Z,180
2018-05-02T08:35:39.963Z,180
2018-05-02T08:36:48.860Z,180
2018-05-02T08:37:57.503Z,180
2018-05-02T08:39:06.155Z,180
2018-05-02T08:40:14.795Z,180
2018-05-02T08:41:23.430Z,180
2018-05-02T08:42:32.079Z,185
2018-05-02T08:43:40.721Z,185
2018-05-02T08:44:49.379Z,185
2018-05-02T08:45:58.019Z,185
2018-05-02T08:47:06.670Z,185
2018-05-02T08:48:15.320Z,190
2018-05-02T08:49:23.954Z,185
2018-05-02T08:50:32.593Z,195
2018-05-02T08:51:41.246Z,200
2018-05-02T08:52:49.898Z,210
2018-05-02T08:53:58.522Z,240
2018-05-02T08:55:07.182Z,180
2018-05-02T08:56:15.826Z,200
2018-05-02T08:57:24.479Z,245
2018-05-02T08:58:33.381Z,245
2018-05-02T08:59:42.018Z,335
2018-05-02T09:00:50.673Z,270
2018-05-02T09:01:59.699Z,240
2018-05-02T09:03:08.332Z,250
2018-05-02T09:04:16.988Z,285
2018-05-02T09:05:25.635Z,220
2018-05-02T09:06:34.267Z,200
2018-05-02T09:07:42.920Z,250
2018-05-02T09:08:51.878Z,245
2018-05-02T09:10:00.518Z,300
2018-05-02T09:11:09.170Z,225
2018-05-02T09:12:18.079Z,290
2018-05-02T09:13:26.759Z,235
2018-05-02T09:14:35.515Z,195
2018-05-02T09:15:44.214Z,260
2018-05-02T09:16:52.862Z,225
2018-05-02T09:18:01.517Z,230
2018-05-02T09:19:10.408Z,235
2018-05-02T09:20:19.351Z,215
2018-05-02T09:21:28.113Z,230
2018-05-02T09:22:36.746Z,255
2018-05-02T09:23:45.450Z,345
2018-05-02T09:24:54.135Z,325
2018-05-02T09:26:02.793Z,225
2018-05-02T09:27:11.493Z,195
2018-05-02T09:28:21.120Z,175
2018-05-02T09:29:29.765Z,205
2018-05-02T09:30:38.449Z,175
2018-05-02T09:31:47.080Z,210
2018-05-02T09:32:55.724Z,195
2018-05-02T09:34:04.654Z,200
2018-05-02T09:35:13.572Z,225
2018-05-02T09:36:22.206Z,215
2018-05-02T09:37:30.866Z,230
2018-05-02T09:38:39.506Z,225
2018-05-02T09:39:48.139Z,205
2018-05-02T09:40:57.062Z,200
2018-05-02T09:42:05.717Z,160
2018-05-02T09:43:14.366Z,160
2018-05-02T09:44:22.999Z,165
2018-05-02T09:45:31.636Z,150
2018-05-02T09:46:40.291Z,145
2018-05-02T09:47:48.934Z,165
2018-05-02T09:48:57.567Z,145
2018-05-02T09:50:06.225Z,165
2018-05-02T09:51:14.870Z,190
2018-05-02T09:52:23.505Z,185
2018-05-02T09:53:32.155Z,205
2018-05-02T09:54:40.810Z,190
2018-05-02T09:55:49.454Z,160
2018-05-02T09:56:58.096Z,150
2018-05-02T09:58:06.999Z,145
2018-05-02T09:59:15.652Z,140
2018-05-02T10:00:24.298Z,145
2018-05-02T10:01:33.199Z,155
2018-05-02T10:02:41.852Z,145
2018-05-02T10:03:50.776Z,150
2018-05-02T10:04:59.404Z,180
2018-05-02T10:06:08.047Z,190
2018-05-02T10:07:16.706Z,180
2018-05-02T10:08:25.348Z,180
2018-05-02T10:09:33.990Z,195
2018-05-02T10:10:42.644Z,250
2018-05-02T10:11:51.282Z,210
2018-05-02T10:12:59.923Z,175
2018-05-02T10:14:08.846Z,200
2018-05-02T10:15:17.492Z,185
2018-05-02T10:16:26.390Z,210
2018-05-02T10:17:35.044Z,225
2018-05-02T10:18:43.688Z,230
2018-05-02T10:19:52.323Z,225
2018-05-02T10:21:00.976Z,195
2018-05-02T10:22:09.629Z,215
2018-05-02T10:23:18.264Z,220
2018-05-02T10:24:26.909Z,215
2018-05-02T10:25:35.549Z,205
2018-05-02T10:26:44.329Z,205
2018-05-02T10:27:52.988Z,235
2018-05-02T10:29:01.877Z,240
2018-05-02T10:30:10.802Z,220
2018-05-02T10:31:19.450Z,250
2018-05-02T10:32:28.353Z,255
2018-05-02T10:33:37.000Z,255
2018-05-02T10:34:45.667Z,250
2018-05-02T10:35:54.302Z,245
2018-05-02T10:37:03.555Z,245
2018-05-02T10:38:12.231Z,235
2018-05-02T10:39:20.866Z,230
2018-05-02T10:40:29.786Z,230
2018-05-02T10:41:38.419Z,225
2018-05-02T10:42:47.621Z,225
2018-05-02T10:43:56.272Z,220
2018-05-02T10:45:05.175Z,220
2018-05-02T10:46:13.817Z,215
2018-05-02T10:47:22.529Z,220
2018-05-02T10:48:31.113Z,220
2018-05-02T10:49:39.754Z,220
2018-05-02T10:50:48.937Z,215
2018-05-02T10:51:57.847Z,220
2018-05-02T10:53:06.480Z,220
2018-05-02T10:54:15.136Z,220
2018-05-02T10:55:24.043Z,215
2018-05-02T10:56:33.241Z,220
2018-05-02T10:57:41.881Z,220
2018-05-02T10:58:50.524Z,220
2018-05-02T10:59:59.178Z,220
2018-05-02T11:01:08.090Z,220
2018-05-02T11:02:16.987Z,220
2018-05-02T11:03:25.642Z,220
2018-05-02T11:04:34.293Z,225
2018-05-02T11:05:42.926Z,220
2018-05-02T11:06:51.587Z,225
2018-05-02T11:08:00.234Z,225
2018-05-02T11:09:09.235Z,225
2018-05-02T11:10:17.875Z,230
2018-05-02T11:11:26.517Z,245
2018-05-02T11:12:35.438Z,250
2018-05-02T11:13:44.097Z,245
2018-05-02T11:14:52.724Z,240
2018-05-02T11:16:01.641Z,230
2018-05-02T11:17:10.556Z,220
2018-05-02T11:18:19.195Z,220
2018-05-02T11:19:27.842Z,215
2018-05-02T11:20:36.503Z,215
2018-05-02T11:21:45.143Z,215
2018-05-02T11:22:54.050Z,215
2018-05-02T11:24:02.961Z,220
2018-05-02T11:25:11.884Z,220
2018-05-02T11:26:20.545Z,220
2018-05-02T11:27:29.178Z,185
2018-05-02T11:28:37.830Z,215
2018-05-02T11:29:46.759Z,215
2018-05-02T11:30:55.399Z,220
2018-05-02T11:32:04.310Z,220
2018-05-02T11:33:13.501Z,220
2018-05-02T11:34:22.143Z,215
2018-05-02T11:35:30.784Z,220
2018-05-02T11:36:39.437Z,215
2018-05-02T11:37:48.079Z,215
2018-05-02T11:38:56.736Z,215
2018-05-02T11:40:05.372Z,210
2018-05-02T11:41:14.285Z,215
2018-05-02T11:42:23.213Z,215
2018-05-02T11:43:31.854Z,215
2018-05-02T11:44:40.491Z,215
2018-05-02T11:45:49.156Z,215
2018-05-02T11:46:57.799Z,215
2018-05-02T11:48:06.439Z,210
2018-05-02T11:49:15.358Z,215
2018-05-02T11:50:24.010Z,215
2018-05-02T11:51:32.644Z,210
2018-05-02T11:52:41.297Z,215
2018-05-02T11:53:49.936Z,210
2018-05-02T11:54:58.856Z,210
2018-05-02T11:56:07.505Z,210
2018-05-02T11:57:16.138Z,210
2018-05-02T11:58:24.799Z,210
2018-05-02T11:59:33.445Z,210
2018-05-02T12:00:42.082Z,200
2018-05-02T12:01:50.733Z,210
2018-05-02T12:02:59.389Z,210
2018-05-02T12:04:08.023Z,210
2018-05-02T12:05:16.676Z,205
2018-05-02T12:06:25.336Z,195
2018-05-02T12:07:33.969Z,210
2018-05-02T12:08:42.615Z,210
2018-05-02T12:09:51.276Z,215
2018-05-02T12:10:59.919Z,220
2018-05-02T12:12:08.563Z,215
2018-05-02T12:13:17.222Z,215
2018-05-02T12:14:25.903Z,205
2018-05-02T12:15:34.502Z,200
2018-05-02T12:16:43.433Z,205
2018-05-02T12:17:52.352Z,200
2018-05-02T12:19:00.997Z,220
2018-05-02T12:20:09.649Z,220
2018-05-02T12:21:18.306Z,220
2018-05-02T12:22:26.947Z,220
2018-05-02T12:23:35.594Z,220
2018-05-02T12:24:44.230Z,220
2018-05-02T12:25:52.892Z,215
2018-05-02T12:27:01.542Z,205
2018-05-02T12:28:10.185Z,205
2018-05-02T12:29:18.843Z,205
2018-05-02T12:30:27.767Z,210
2018-05-02T12:31:36.404Z,195
2018-05-02T12:32:45.052Z,215
2018-05-02T12:33:53.993Z,215
2018-05-02T12:35:02.635Z,220
2018-05-02T12:36:11.278Z,210
2018-05-02T12:37:19.918Z,210
2018-05-02T12:38:28.574Z,215
2018-05-02T12:39:37.233Z,195
2018-05-02T12:40:45.928Z,200
2018-05-02T12:41:54.514Z,190
2018-05-02T12:43:03.180Z,195
2018-05-02T12:44:11.816Z,205
2018-05-02T12:45:20.464Z,205
2018-05-02T12:46:29.387Z,230
2018-05-02T12:47:38.027Z,225
2018-05-02T12:48:46.945Z,240
2018-05-02T12:49:55.605Z,255
2018-05-02T12:51:04.533Z,260
2018-05-02T12:52:13.180Z,250
2018-05-02T12:53:21.819Z,235
2018-05-02T12:54:30.733Z,195
2018-05-02T12:55:39.395Z,210
2018-05-02T12:56:48.302Z,235
2018-05-02T12:57:56.948Z,215
2018-05-02T12:59:05.604Z,235
2018-05-02T13:00:14.263Z,180
2018-05-02T13:01:22.897Z,245
2018-05-02T13:02:31.911Z,225
2018-05-02T13:03:40.492Z,210
2018-05-02T13:04:49.128Z,210
2018-05-02T13:05:57.787Z,215
2018-05-02T13:07:06.428Z,235
2018-05-02T13:08:15.137Z,225
2018-05-02T13:09:23.736Z,230
2018-05-02T13:10:32.370Z,245
2018-05-02T13:11:41.030Z,255
2018-05-02T13:12:49.678Z,250
2018-05-02T13:13:58.585Z,250
2018-05-02T13:15:07.239Z,210
2018-05-02T13:16:15.897Z,245
2018-05-02T13:17:24.531Z,235
2018-05-02T13:18:33.182Z,240
2018-05-02T13:19:41.849Z,235
2018-05-02T13:20:50.756Z,250
2018-05-02T13:21:59.403Z,225
2018-05-02T13:23:08.038Z,205
2018-05-02T13:24:16.696Z,205
2018-05-02T13:25:25.354Z,220
2018-05-02T13:26:33.991Z,205
2018-05-02T13:27:42.634Z,220
2018-05-02T13:28:51.283Z,210
2018-05-02T13:29:59.920Z,205
2018-05-02T13:31:08.567Z,215
2018-05-02T13:32:17.223Z,235
2018-05-02T13:33:25.865Z,260
2018-05-02T13:34:34.504Z,240
2018-05-02T13:35:43.157Z,215
2018-05-02T13:36:51.805Z,235
2018-05-02T13:38:00.469Z,235
2018-05-02T13:39:09.108Z,245
2018-05-02T13:40:18.028Z,240
2018-05-02T13:41:26.673Z,225
2018-05-02T13:42:35.581Z,220
2018-05-02T13:43:44.259Z,205
2018-05-02T13:44:52.887Z,225
2018-05-02T13:46:01.532Z,245
2018-05-02T13:47:10.447Z,250
2018-05-02T13:48:19.112Z,250
2018-05-02T13:49:28.024Z,240
2018-05-02T13:50:36.676Z,225
2018-05-02T13:51:45.315Z,220
2018-05-02T13:52:53.960Z,235
2018-05-02T13:54:02.888Z,235
2018-05-02T13:55:11.536Z,225
2018-05-02T13:56:20.171Z,215
2018-05-02T13:57:28.831Z,225
2018-05-02T13:58:37.481Z,215
2018-05-02T13:59:46.131Z,205
2018-05-02T14:00:55.112Z,230
2018-05-02T14:02:03.978Z,220
2018-05-02T14:03:12.613Z,220
2018-05-02T14:04:21.259Z,220
2018-05-02T14:05:29.917Z,220
2018-05-02T14:06:38.555Z,230
2018-05-02T14:07:47.201Z,220
2018-05-02T14:08:55.863Z,225
2018-05-02T14:10:04.773Z,235
2018-05-02T14:11:13.683Z,230
2018-05-02T14:12:22.339Z,240
2018-05-02T14:13:31.251Z,235
2018-05-02T14:14:39.888Z,230
2018-05-02T14:15:48.813Z,235
2018-05-02T14:16:57.462Z,240
2018-05-02T14:18:06.100Z,235
2018-05-02T14:19:15.514Z,235
2018-05-02T14:20:24.153Z,250
2018-05-02T14:21:32.813Z,245
2018-05-02T14:22:41.461Z,235
2018-05-02T14:23:50.098Z,240
2018-05-02T14:24:58.757Z,235
2018-05-02T14:26:07.409Z,215
2018-05-02T14:27:16.044Z,220
2018-05-02T14:28:24.702Z,220
2018-05-02T14:29:33.355Z,225
2018-05-02T14:30:41.995Z,225
2018-05-02T14:31:50.644Z,225
2018-05-02T14:32:59.306Z,230
2018-05-02T14:34:08.219Z,230
2018-05-02T14:35:16.870Z,215
2018-05-02T14:36:25.504Z,195
2018-05-02T14:37:34.157Z,195
2018-05-02T14:38:42.814Z,185
2018-05-02T14:39:51.451Z,215
2018-05-02T14:41:00.105Z,200
2018-05-02T14:42:08.783Z,200
2018-05-02T14:43:17.405Z,195
2018-05-02T14:44:26.052Z,195
2018-05-02T14:45:35.078Z,190
2018-05-02T14:46:43.717Z,210
2018-05-02T14:47:52.365Z,205
2018-05-02T14:49:01.014Z,200
2018-05-02T14:50:09.668Z,210
2018-05-02T14:51:18.332Z,215
2018-05-02T14:52:26.969Z,220
2018-05-02T14:53:35.613Z,225
2018-05-02T14:54:44.568Z,240
2018-05-02T14:55:53.216Z,230
2018-05-02T14:57:01.860Z,230
2018-05-02T14:58:10.786Z,230
2018-05-02T14:59:19.694Z,220
2018-05-02T15:00:28.333Z,225
2018-05-02T15:01:37.372Z,250
2018-05-02T15:02:45.955Z,235
2018-05-02T15:03:54.604Z,230
2018-05-02T15:05:03.244Z,225
2018-05-02T15:06:11.893Z,235
2018-05-02T15:07:20.815Z,215
2018-05-02T15:08:29.464Z,205
2018-05-02T15:09:38.100Z,205
2018-05-02T15:10:46.760Z,205
2018-05-02T15:11:55.411Z,200
2018-05-02T15:13:04.046Z,205
2018-05-02T15:14:12.699Z,205
2018-05-02T15:15:21.355Z,200
2018-05-02T15:16:29.996Z,215
2018-05-02T15:17:38.648Z,210
2018-05-02T15:18:47.293Z,215
2018-05-02T15:19:55.954Z,220
2018-05-02T15:21:04.610Z,200
2018-05-02T15:22:13.507Z,200
2018-05-02T15:23:22.434Z,205
2018-05-02T15:24:31.361Z,195
2018-05-02T15:25:40.000Z,195
2018-05-02T15:26:48.648Z,195
2018-05-02T15:27:57.319Z,185
2018-05-02T15:29:06.210Z,185
2018-05-02T15:30:14.859Z,190
2018-05-02T15:31:23.519Z,195
2018-05-02T15:32:32.177Z,205
2018-05-02T15:33:40.811Z,195
2018-05-02T15:34:49.452Z,205
2018-05-02T15:35:58.381Z,210
2018-05-02T15:37:07.038Z,220
2018-05-02T15:38:15.940Z,210
2018-05-02T15:39:24.585Z,205
2018-05-02T15:40:33.246Z,210
2018-05-02T15:41:41.887Z,215
2018-05-02T15:42:50.532Z,215
2018-05-02T15:43:59.191Z,210
2018-05-02T15:45:07.839Z,205
2018-05-02T15:46:16.480Z,205
2018-05-02T15:47:25.132Z,210
2018-05-02T15:48:33.778Z,195
2018-05-02T15:49:42.443Z,190
2018-05-02T15:50:51.084Z,185
2018-05-02T15:51:59.816Z,190
2018-05-02T15:53:08.387Z,180
2018-05-02T15:54:17.028Z,180
2018-05-02T15:55:25.667Z,170
2018-05-02T15:56:34.324Z,160
2018-05-02T15:57:43.349Z,175
2018-05-02T15:58:51.972Z,170
2018-05-02T16:00:00.632Z,175
2018-05-02T16:01:09.560Z,180
2018-05-02T16:02:18.212Z,180
2018-05-02T16:03:26.857Z,175
2018-05-02T16:04:35.517Z,175
2018-05-02T16:05:44.159Z,175